sensor_id;sensor_type;location;lat;lon;timestamp;pressure;altitude;pressure_sealevel;temperature;humidity
13800;BME280;6971;50.028;9.258;2023-05-03T00:02:50;100412.25;;;3.60;100.00
13800;BME280;6971;50.028;9.258;2023-05-03T00:07:53;100414.06;;;3.51;100.00
13800;BME280;6971;50.028;9.258;2023-05-03T00:12:53;100414.88;;;3.53;100.00
13800;BME280;6971;50.028;9.258;2023-05-03T00:17:54;100403.56;;;3.56;100.00
13800;BME280;6971;50.028;9.258;2023-05-03T00:22:54;100395.91;;;3.39;100.00
13800;BME280;6971;50.028;9.258;2023-05-03T00:27:55;100390.00;;;3.18;100.00
13800;BME280;6971;50.028;9.258;2023-05-03T00:32:56;100402.19;;;3.13;100.00
13800;BME280;6971;50.028;9.258;2023-05-03T00:37:56;100396.16;;;3.11;100.00
13800;BME280;6971;50.028;9.258;2023-05-03T00:42:57;100404.06;;;2.97;100.00
13800;BME280;6971;50.028;9.258;2023-05-03T00:47:57;100395.41;;;2.93;100.00
13800;BME280;6971;50.028;9.258;2023-05-03T00:52:57;100397.19;;;2.85;100.00
13800;BME280;6971;50.028;9.258;2023-05-03T00:57:58;100392.84;;;2.84;100.00
13800;BME280;6971;50.028;9.258;2023-05-03T01:02:58;100385.94;;;2.78;100.00
13800;BME280;6971;50.028;9.258;2023-05-03T01:08:12;100384.25;;;2.69;100.00
13800;BME280;6971;50.028;9.258;2023-05-03T01:13:39;100379.16;;;2.51;100.00
13800;BME280;6971;50.028;9.258;2023-05-03T01:18:43;100374.00;;;2.41;100.00
13800;BME280;6971;50.028;9.258;2023-05-03T01:28:51;100363.66;;;2.32;100.00
13800;BME280;6971;50.028;9.258;2023-05-03T01:33:54;100365.31;;;2.45;100.00
13800;BME280;6971;50.028;9.258;2023-05-03T01:38:56;100356.69;;;2.34;100.00
13800;BME280;6971;50.028;9.258;2023-05-03T01:43:57;100358.50;;;2.19;100.00
13800;BME280;6971;50.028;9.258;2023-05-03T01:48:58;100350.69;;;2.21;100.00
13800;BME280;6971;50.028;9.258;2023-05-03T01:53:58;100355.06;;;2.14;100.00
13800;BME280;6971;50.028;9.258;2023-05-03T01:58:58;100356.78;;;2.18;100.00
13800;BME280;6971;50.028;9.258;2023-05-03T02:03:59;100364.63;;;2.07;100.00
13800;BME280;6971;50.028;9.258;2023-05-03T02:09:00;100369.03;;;1.88;100.00
13800;BME280;6971;50.028;9.258;2023-05-03T02:14:00;100367.31;;;1.75;100.00
13800;BME280;6971;50.028;9.258;2023-05-03T02:19:00;100363.84;;;1.79;100.00
13800;BME280;6971;50.028;9.258;2023-05-03T02:24:01;100359.53;;;1.76;100.00
13800;BME280;6971;50.028;9.258;2023-05-03T02:29:01;100363.03;;;1.60;100.00
13800;BME280;6971;50.028;9.258;2023-05-03T02:34:02;100376.91;;;1.59;100.00
13800;BME280;6971;50.028;9.258;2023-05-03T02:39:02;100378.63;;;1.46;100.00
13800;BME280;6971;50.028;9.258;2023-05-03T02:44:02;100382.09;;;1.41;100.00
13800;BME280;6971;50.028;9.258;2023-05-03T02:49:03;100379.50;;;1.37;100.00
13800;BME280;6971;50.028;9.258;2023-05-03T02:54:03;100379.50;;;1.35;100.00
13800;BME280;6971;50.028;9.258;2023-05-03T02:59:03;100384.72;;;1.35;100.00
13800;BME280;6971;50.028;9.258;2023-05-03T03:04:05;100371.72;;;1.30;100.00
13800;BME280;6971;50.028;9.258;2023-05-03T03:09:05;100370.00;;;1.15;100.00
13800;BME280;6971;50.028;9.258;2023-05-03T03:14:06;100376.94;;;1.16;100.00
13800;BME280;6971;50.028;9.258;2023-05-03T03:19:06;100379.50;;;1.20;100.00
13800;BME280;6971;50.028;9.258;2023-05-03T03:24:07;100375.19;;;1.08;100.00
13800;BME280;6971;50.028;9.258;2023-05-03T03:29:07;100380.38;;;1.06;100.00
13800;BME280;6971;50.028;9.258;2023-05-03T03:34:11;100383.84;;;1.14;100.00
13800;BME280;6971;50.028;9.258;2023-05-03T03:39:12;100383.00;;;1.12;100.00
13800;BME280;6971;50.028;9.258;2023-05-03T03:44:13;100374.31;;;0.95;100.00
13800;BME280;6971;50.028;9.258;2023-05-03T03:49:13;100377.78;;;0.97;100.00
13800;BME280;6971;50.028;9.258;2023-05-03T03:54:13;100392.47;;;0.91;100.00
13800;BME280;6971;50.028;9.258;2023-05-03T03:59:14;100394.22;;;0.91;100.00
13800;BME280;6971;50.028;9.258;2023-05-03T04:04:14;100389.00;;;0.77;100.00
13800;BME280;6971;50.028;9.258;2023-05-03T04:09:15;100390.75;;;0.87;100.00
13800;BME280;6971;50.028;9.258;2023-05-03T04:14:16;100387.28;;;0.82;100.00
13800;BME280;6971;50.028;9.258;2023-05-03T04:19:17;100386.44;;;0.91;100.00
13800;BME280;6971;50.028;9.258;2023-05-03T04:24:17;100393.31;;;0.75;100.00
13800;BME280;6971;50.028;9.258;2023-05-03T04:29:18;100386.44;;;0.80;100.00
13800;BME280;6971;50.028;9.258;2023-05-03T04:34:19;100396.81;;;0.86;100.00
13800;BME280;6971;50.028;9.258;2023-05-03T04:39:19;100400.28;;;0.91;100.00
13800;BME280;6971;50.028;9.258;2023-05-03T04:44:21;100402.88;;;0.95;100.00
13800;BME280;6971;50.028;9.258;2023-05-03T04:49:21;100404.63;;;1.00;100.00
13800;BME280;6971;50.028;9.258;2023-05-03T04:54:21;100404.63;;;1.07;100.00
13800;BME280;6971;50.028;9.258;2023-05-03T04:59:22;100410.69;;;1.18;100.00
13800;BME280;6971;50.028;9.258;2023-05-03T05:04:22;100408.94;;;1.09;100.00
13800;BME280;6971;50.028;9.258;2023-05-03T05:09:24;100411.53;;;1.20;100.00
13800;BME280;6971;50.028;9.258;2023-05-03T05:14:25;100416.75;;;1.20;100.00
13800;BME280;6971;50.028;9.258;2023-05-03T05:19:26;100421.06;;;1.32;100.00
13800;BME280;6971;50.028;9.258;2023-05-03T05:24:26;100418.47;;;1.46;100.00
13800;BME280;6971;50.028;9.258;2023-05-03T05:29:27;100428.00;;;1.52;100.00
13800;BME280;6971;50.028;9.258;2023-05-03T05:34:27;100431.44;;;1.73;100.00
13800;BME280;6971;50.028;9.258;2023-05-03T05:39:27;100430.53;;;1.88;100.00
13800;BME280;6971;50.028;9.258;2023-05-03T05:44:28;100426.16;;;2.04;100.00
13800;BME280;6971;50.028;9.258;2023-05-03T05:49:29;100429.56;;;2.28;100.00
13800;BME280;6971;50.028;9.258;2023-05-03T05:54:29;100431.25;;;2.38;100.00
13800;BME280;6971;50.028;9.258;2023-05-03T05:59:30;100428.59;;;2.55;100.00
13800;BME280;6971;50.028;9.258;2023-05-03T06:04:30;100425.84;;;2.77;100.00
13800;BME280;6971;50.028;9.258;2023-05-03T06:09:31;100419.66;;;2.98;100.00
13800;BME280;6971;50.028;9.258;2023-05-03T06:14:31;100417.72;;;3.25;100.00
13800;BME280;6971;50.028;9.258;2023-05-03T06:19:31;100416.66;;;3.53;100.00
13800;BME280;6971;50.028;9.258;2023-05-03T06:24:32;100409.34;;;3.86;100.00
13800;BME280;6971;50.028;9.258;2023-05-03T06:29:32;100413.03;;;4.45;100.00
13800;BME280;6971;50.028;9.258;2023-05-03T06:34:33;100414.75;;;5.09;100.00
13800;BME280;6971;50.028;9.258;2023-05-03T06:39:33;100421.00;;;5.55;100.00
13800;BME280;6971;50.028;9.258;2023-05-03T06:44:34;100418.91;;;6.23;97.69
13800;BME280;6971;50.028;9.258;2023-05-03T06:49:34;100415.97;;;5.92;100.00
13800;BME280;6971;50.028;9.258;2023-05-03T06:54:34;100414.28;;;6.35;99.92
13800;BME280;6971;50.028;9.258;2023-05-03T06:59:35;100412.66;;;6.29;100.00
13800;BME280;6971;50.028;9.258;2023-05-03T07:04:36;100415.31;;;7.08;88.38
13800;BME280;6971;50.028;9.258;2023-05-03T07:09:36;100411.63;;;7.52;81.80
13800;BME280;6971;50.028;9.258;2023-05-03T07:14:38;100419.28;;;7.94;79.43
13800;BME280;6971;50.028;9.258;2023-05-03T07:19:39;100418.94;;;8.39;76.97
13800;BME280;6971;50.028;9.258;2023-05-03T07:24:39;100422.63;;;8.63;75.42
13800;BME280;6971;50.028;9.258;2023-05-03T07:29:40;100404.00;;;8.71;75.10
13800;BME280;6971;50.028;9.258;2023-05-03T07:34:40;100408.34;;;9.00;74.83
13800;BME280;6971;50.028;9.258;2023-05-03T07:39:40;100404.22;;;9.47;71.67
13800;BME280;6971;50.028;9.258;2023-05-03T07:44:41;100411.75;;;9.84;69.91
13800;BME280;6971;50.028;9.258;2023-05-03T07:49:41;100411.78;;;10.31;68.96
13800;BME280;6971;50.028;9.258;2023-05-03T07:54:42;100403.09;;;10.29;67.15
13800;BME280;6971;50.028;9.258;2023-05-03T07:59:44;100402.50;;;11.36;64.66
13800;BME280;6971;50.028;9.258;2023-05-03T08:04:45;100404.53;;;11.71;63.22
13800;BME280;6971;50.028;9.258;2023-05-03T08:09:45;100406.56;;;12.65;61.46
13800;BME280;6971;50.028;9.258;2023-05-03T08:14:47;100408.03;;;13.09;57.27
13800;BME280;6971;50.028;9.258;2023-05-03T08:19:48;100412.59;;;13.78;56.37
13800;BME280;6971;50.028;9.258;2023-05-03T08:24:49;100412.50;;;14.63;54.16
13800;BME280;6971;50.028;9.258;2023-05-03T08:29:50;100417.34;;;15.35;51.68
13800;BME280;6971;50.028;9.258;2023-05-03T08:34:51;100409.00;;;15.72;48.67
13800;BME280;6971;50.028;9.258;2023-05-03T08:39:51;100418.50;;;15.76;50.23
13800;BME280;6971;50.028;9.258;2023-05-03T08:44:53;100409.00;;;15.72;49.19
13800;BME280;6971;50.028;9.258;2023-05-03T08:49:54;100413.19;;;15.76;50.06
13800;BME280;6971;50.028;9.258;2023-05-03T08:54:56;100398.72;;;15.66;47.88
13800;BME280;6971;50.028;9.258;2023-05-03T08:59:56;100410.38;;;16.38;48.71
13800;BME280;6971;50.028;9.258;2023-05-03T09:05:00;100403.69;;;16.60;46.70
13800;BME280;6971;50.028;9.258;2023-05-03T09:10:01;100404.56;;;16.46;45.95
13800;BME280;6971;50.028;9.258;2023-05-03T09:15:01;100412.16;;;15.48;49.08
13800;BME280;6971;50.028;9.258;2023-05-03T09:20:03;100408.50;;;17.37;46.68
13800;BME280;6971;50.028;9.258;2023-05-03T09:25:04;100405.53;;;16.44;46.30
13800;BME280;6971;50.028;9.258;2023-05-03T09:30:17;100404.28;;;17.73;44.19
13800;BME280;6971;50.028;9.258;2023-05-03T09:35:18;100406.91;;;16.50;45.56
13800;BME280;6971;50.028;9.258;2023-05-03T09:40:19;100408.66;;;18.00;43.88
13800;BME280;6971;50.028;9.258;2023-05-03T09:45:22;100408.66;;;18.77;41.58
13800;BME280;6971;50.028;9.258;2023-05-03T09:50:23;100403.81;;;17.54;41.96
13800;BME280;6971;50.028;9.258;2023-05-03T09:55:24;100401.50;;;18.27;41.85
13800;BME280;6971;50.028;9.258;2023-05-03T10:00:24;100387.63;;;17.96;41.47
13800;BME280;6971;50.028;9.258;2023-05-03T10:05:25;100378.09;;;19.30;39.83
13800;BME280;6971;50.028;9.258;2023-05-03T10:10:31;100378.44;;;19.01;38.96
13800;BME280;6971;50.028;9.258;2023-05-03T10:15:33;100365.69;;;18.80;39.87
13800;BME280;6971;50.028;9.258;2023-05-03T10:20:44;100368.66;;;17.74;40.99
13800;BME280;6971;50.028;9.258;2023-05-03T10:36:46;100355.22;;;20.86;34.79
13800;BME280;6971;50.028;9.258;2023-05-03T10:41:56;100350.50;;;19.29;35.44
13800;BME280;6971;50.028;9.258;2023-05-03T10:47:08;100349.75;;;19.86;35.14
13800;BME280;6971;50.028;9.258;2023-05-03T10:57:37;100329.34;;;18.90;35.70
13800;BME280;6971;50.028;9.258;2023-05-03T11:03:21;100329.91;;;19.66;35.94
13800;BME280;6971;50.028;9.258;2023-05-03T11:08:25;100319.34;;;20.21;33.40
13800;BME280;6971;50.028;9.258;2023-05-03T11:13:27;100314.09;;;21.08;33.67
13800;BME280;6971;50.028;9.258;2023-05-03T11:18:27;100314.75;;;19.66;33.98
13800;BME280;6971;50.028;9.258;2023-05-03T11:23:28;100311.22;;;20.23;31.46
13800;BME280;6971;50.028;9.258;2023-05-03T11:28:29;100304.97;;;19.42;33.50
13800;BME280;6971;50.028;9.258;2023-05-03T11:33:29;100303.16;;;20.67;30.03
13800;BME280;6971;50.028;9.258;2023-05-03T11:38:31;100324.91;;;21.18;28.29
13800;BME280;6971;50.028;9.258;2023-05-03T11:43:31;100311.41;;;21.72;29.35
13800;BME280;6971;50.028;9.258;2023-05-03T11:48:32;100302.06;;;19.91;31.72
13800;BME280;6971;50.028;9.258;2023-05-03T11:53:33;100293.81;;;19.60;34.13
13800;BME280;6971;50.028;9.258;2023-05-03T11:58:33;100303.75;;;19.47;30.66
13800;BME280;6971;50.028;9.258;2023-05-03T12:03:34;100290.06;;;20.97;31.06
13800;BME280;6971;50.028;9.258;2023-05-03T12:08:35;100278.88;;;21.34;29.61
13800;BME280;6971;50.028;9.258;2023-05-03T12:13:36;100273.75;;;21.52;30.36
13800;BME280;6971;50.028;9.258;2023-05-03T12:18:53;100278.00;;;21.65;28.92
13800;BME280;6971;50.028;9.258;2023-05-03T12:23:55;100270.69;;;20.28;30.49
13800;BME280;6971;50.028;9.258;2023-05-03T12:28:56;100266.94;;;20.30;31.00
13800;BME280;6971;50.028;9.258;2023-05-03T12:33:56;100265.16;;;21.06;29.05
13800;BME280;6971;50.028;9.258;2023-05-03T12:38:57;100256.94;;;20.98;30.76
13800;BME280;6971;50.028;9.258;2023-05-03T12:43:58;100245.19;;;20.78;31.18
13800;BME280;6971;50.028;9.258;2023-05-03T12:48:58;100253.06;;;20.91;30.12
13800;BME280;6971;50.028;9.258;2023-05-03T12:53:59;100245.47;;;20.42;30.55
13800;BME280;6971;50.028;9.258;2023-05-03T12:59:08;100234.00;;;20.07;30.37
13800;BME280;6971;50.028;9.258;2023-05-03T13:04:08;100225.38;;;18.76;31.43
13800;BME280;6971;50.028;9.258;2023-05-03T13:09:09;100218.16;;;19.01;32.40
13800;BME280;6971;50.028;9.258;2023-05-03T13:14:11;100225.75;;;19.18;31.02
13800;BME280;6971;50.028;9.258;2023-05-03T13:19:14;100195.25;;;19.78;32.11
13800;BME280;6971;50.028;9.258;2023-05-03T13:24:15;100193.94;;;19.15;31.41
13800;BME280;6971;50.028;9.258;2023-05-03T13:29:15;100188.84;;;19.24;31.70
13800;BME280;6971;50.028;9.258;2023-05-03T13:34:16;100168.44;;;19.23;31.73
13800;BME280;6971;50.028;9.258;2023-05-03T13:39:16;100165.88;;;19.21;31.12
13800;BME280;6971;50.028;9.258;2023-05-03T13:44:18;100157.03;;;19.09;31.42
13800;BME280;6971;50.028;9.258;2023-05-03T13:49:18;100159.59;;;19.11;31.84
13800;BME280;6971;50.028;9.258;2023-05-03T13:54:19;100157.25;;;19.52;31.38
13800;BME280;6971;50.028;9.258;2023-05-03T13:59:19;100158.34;;;19.61;29.99
13800;BME280;6971;50.028;9.258;2023-05-03T14:04:20;100157.50;;;19.14;29.76
13800;BME280;6971;50.028;9.258;2023-05-03T14:09:20;100148.50;;;19.04;29.76
13800;BME280;6971;50.028;9.258;2023-05-03T14:14:21;100148.75;;;19.24;29.54
13800;BME280;6971;50.028;9.258;2023-05-03T14:19:21;100147.91;;;19.23;29.39
13800;BME280;6971;50.028;9.258;2023-05-03T14:24:21;100144.75;;;19.18;30.98
13800;BME280;6971;50.028;9.258;2023-05-03T14:29:22;100134.19;;;19.28;29.28
13800;BME280;6971;50.028;9.258;2023-05-03T14:34:22;100138.22;;;19.11;29.06
13800;BME280;6971;50.028;9.258;2023-05-03T14:39:23;100139.31;;;19.31;29.83
13800;BME280;6971;50.028;9.258;2023-05-03T14:44:25;100132.00;;;19.10;28.73
13800;BME280;6971;50.028;9.258;2023-05-03T14:49:26;100125.94;;;19.20;31.05
13800;BME280;6971;50.028;9.258;2023-05-03T14:54:26;100124.25;;;19.18;28.27
13800;BME280;6971;50.028;9.258;2023-05-03T14:59:26;100129.16;;;19.57;29.71
13800;BME280;6971;50.028;9.258;2023-05-03T15:04:28;100130.44;;;19.30;28.86
13800;BME280;6971;50.028;9.258;2023-05-03T15:09:32;100125.06;;;19.42;29.17
13800;BME280;6971;50.028;9.258;2023-05-03T15:14:32;100131.53;;;19.28;28.39
13800;BME280;6971;50.028;9.258;2023-05-03T15:19:32;100119.84;;;19.29;27.49
13800;BME280;6971;50.028;9.258;2023-05-03T15:24:33;100126.41;;;18.90;26.97
13800;BME280;6971;50.028;9.258;2023-05-03T15:29:33;100119.38;;;19.35;28.31
13800;BME280;6971;50.028;9.258;2023-05-03T15:34:36;100122.78;;;19.26;27.90
13800;BME280;6971;50.028;9.258;2023-05-03T15:39:37;100122.03;;;19.01;27.72
13800;BME280;6971;50.028;9.258;2023-05-03T15:44:37;100116.78;;;19.45;27.92
13800;BME280;6971;50.028;9.258;2023-05-03T15:49:38;100121.16;;;19.00;27.93
13800;BME280;6971;50.028;9.258;2023-05-03T15:54:38;100108.66;;;18.78;29.02
13800;BME280;6971;50.028;9.258;2023-05-03T15:59:38;100114.13;;;18.99;28.41
13800;BME280;6971;50.028;9.258;2023-05-03T16:04:39;100108.78;;;18.76;28.54
13800;BME280;6971;50.028;9.258;2023-05-03T16:09:41;100107.28;;;18.49;29.24
13800;BME280;6971;50.028;9.258;2023-05-03T16:14:41;100115.06;;;18.52;29.11
13800;BME280;6971;50.028;9.258;2023-05-03T16:19:41;100097.56;;;18.48;28.98
13800;BME280;6971;50.028;9.258;2023-05-03T16:24:43;100101.09;;;18.60;29.50
13800;BME280;6971;50.028;9.258;2023-05-03T16:29:43;100097.94;;;18.55;30.11
13800;BME280;6971;50.028;9.258;2023-05-03T16:34:43;100095.25;;;18.44;31.25
13800;BME280;6971;50.028;9.258;2023-05-03T16:39:44;100090.66;;;18.46;30.98
13800;BME280;6971;50.028;9.258;2023-05-03T16:44:45;100088.72;;;18.48;31.33
13800;BME280;6971;50.028;9.258;2023-05-03T16:49:45;100095.34;;;18.31;31.24
13800;BME280;6971;50.028;9.258;2023-05-03T16:54:45;100091.34;;;18.36;31.40
13800;BME280;6971;50.028;9.258;2023-05-03T16:59:46;100087.13;;;18.09;31.52
13800;BME280;6971;50.028;9.258;2023-05-03T17:04:46;100088.78;;;17.74;31.16
13800;BME280;6971;50.028;9.258;2023-05-03T17:09:47;100093.38;;;17.97;31.86
13800;BME280;6971;50.028;9.258;2023-05-03T17:14:47;100090.97;;;17.81;31.85
13800;BME280;6971;50.028;9.258;2023-05-03T17:19:47;100093.81;;;17.66;33.35
13800;BME280;6971;50.028;9.258;2023-05-03T17:24:47;100092.06;;;17.54;32.40
13800;BME280;6971;50.028;9.258;2023-05-03T17:29:48;100093.22;;;17.49;32.39
13800;BME280;6971;50.028;9.258;2023-05-03T17:34:48;100095.66;;;17.28;33.11
13800;BME280;6971;50.028;9.258;2023-05-03T17:39:48;100099.06;;;17.17;34.51
13800;BME280;6971;50.028;9.258;2023-05-03T17:44:52;100104.81;;;16.98;35.83
13800;BME280;6971;50.028;9.258;2023-05-03T17:49:53;100104.00;;;16.72;39.88
13800;BME280;6971;50.028;9.258;2023-05-03T17:54:54;100098.34;;;15.97;42.42
13800;BME280;6971;50.028;9.258;2023-05-03T17:59:55;100100.44;;;15.49;48.52
13800;BME280;6971;50.028;9.258;2023-05-03T18:04:56;100090.44;;;15.11;50.83
13800;BME280;6971;50.028;9.258;2023-05-03T18:09:57;100088.13;;;14.46;54.23
13800;BME280;6971;50.028;9.258;2023-05-03T18:14:58;100097.84;;;14.15;54.80
13800;BME280;6971;50.028;9.258;2023-05-03T18:19:59;100100.34;;;13.72;57.52
13800;BME280;6971;50.028;9.258;2023-05-03T18:24:59;100096.38;;;13.30;59.40
13800;BME280;6971;50.028;9.258;2023-05-03T18:30:01;100096.63;;;12.76;63.16
13800;BME280;6971;50.028;9.258;2023-05-03T18:35:02;100094.09;;;12.39;66.01
13800;BME280;6971;50.028;9.258;2023-05-03T18:40:03;100098.78;;;11.97;66.97
13800;BME280;6971;50.028;9.258;2023-05-03T18:45:03;100099.97;;;11.72;67.59
13800;BME280;6971;50.028;9.258;2023-05-03T18:50:05;100096.28;;;11.38;69.22
13800;BME280;6971;50.028;9.258;2023-05-03T18:55:06;100097.28;;;11.16;69.79
13800;BME280;6971;50.028;9.258;2023-05-03T19:00:07;100097.50;;;10.71;72.97
13800;BME280;6971;50.028;9.258;2023-05-03T19:05:08;100092.66;;;10.39;74.97
13800;BME280;6971;50.028;9.258;2023-05-03T19:10:09;100105.31;;;10.31;76.05
13800;BME280;6971;50.028;9.258;2023-05-03T19:15:10;100116.56;;;9.91;77.70
13800;BME280;6971;50.028;9.258;2023-05-03T19:20:14;100117.25;;;9.52;80.42
13800;BME280;6971;50.028;9.258;2023-05-03T19:25:14;100125.13;;;9.28;82.20
13800;BME280;6971;50.028;9.258;2023-05-03T19:30:15;100121.59;;;9.05;84.94
13800;BME280;6971;50.028;9.258;2023-05-03T19:35:15;100112.66;;;8.85;85.48
13800;BME280;6971;50.028;9.258;2023-05-03T19:40:15;100122.97;;;8.66;86.74
13800;BME280;6971;50.028;9.258;2023-05-03T19:45:18;100116.81;;;8.40;88.45
13800;BME280;6971;50.028;9.258;2023-05-03T19:50:19;100115.13;;;8.12;91.03
13800;BME280;6971;50.028;9.258;2023-05-03T19:55:19;100120.16;;;7.91;92.75
13800;BME280;6971;50.028;9.258;2023-05-03T20:00:22;100117.81;;;7.82;93.89
13800;BME280;6971;50.028;9.258;2023-05-03T20:05:22;100122.91;;;7.58;95.98
13800;BME280;6971;50.028;9.258;2023-05-03T20:10:22;100123.13;;;7.50;97.90
13800;BME280;6971;50.028;9.258;2023-05-03T20:15:22;100121.94;;;7.32;100.00
13800;BME280;6971;50.028;9.258;2023-05-03T20:20:23;100109.25;;;7.16;100.00
13800;BME280;6971;50.028;9.258;2023-05-03T20:25:23;100108.78;;;7.03;100.00
13800;BME280;6971;50.028;9.258;2023-05-03T20:30:24;100102.28;;;6.85;100.00
13800;BME280;6971;50.028;9.258;2023-05-03T20:35:25;100099.94;;;6.74;100.00
13800;BME280;6971;50.028;9.258;2023-05-03T20:40:25;100091.72;;;6.55;100.00
13800;BME280;6971;50.028;9.258;2023-05-03T20:45:26;100096.22;;;6.50;100.00
13800;BME280;6971;50.028;9.258;2023-05-03T20:50:27;100091.44;;;6.33;100.00
13800;BME280;6971;50.028;9.258;2023-05-03T20:55:27;100088.25;;;6.20;100.00
13800;BME280;6971;50.028;9.258;2023-05-03T21:00:28;100085.00;;;6.10;100.00
13800;BME280;6971;50.028;9.258;2023-05-03T21:05:28;100088.66;;;6.04;100.00
13800;BME280;6971;50.028;9.258;2023-05-03T21:10:29;100085.41;;;5.93;100.00
13800;BME280;6971;50.028;9.258;2023-05-03T21:15:29;100081.00;;;5.95;100.00
13800;BME280;6971;50.028;9.258;2023-05-03T21:20:29;100092.84;;;5.72;100.00
13800;BME280;6971;50.028;9.258;2023-05-03T21:25:30;100093.78;;;5.69;100.00
13800;BME280;6971;50.028;9.258;2023-05-03T21:30:30;100092.34;;;5.56;100.00
13800;BME280;6971;50.028;9.258;2023-05-03T21:35:31;100089.97;;;5.45;100.00
13800;BME280;6971;50.028;9.258;2023-05-03T21:40:31;100083.91;;;5.44;100.00
13800;BME280;6971;50.028;9.258;2023-05-03T21:45:32;100089.50;;;5.26;100.00
13800;BME280;6971;50.028;9.258;2023-05-03T21:50:32;100083.31;;;5.31;100.00
13800;BME280;6971;50.028;9.258;2023-05-03T21:55:33;100080.06;;;5.20;100.00
13800;BME280;6971;50.028;9.258;2023-05-03T22:00:33;100075.09;;;5.07;100.00
13800;BME280;6971;50.028;9.258;2023-05-03T22:05:38;100066.28;;;5.13;100.00
13800;BME280;6971;50.028;9.258;2023-05-03T22:10:39;100066.41;;;5.05;100.00
13800;BME280;6971;50.028;9.258;2023-05-03T22:15:39;100067.44;;;5.00;100.00
13800;BME280;6971;50.028;9.258;2023-05-03T22:20:40;100064.72;;;5.03;100.00
13800;BME280;6971;50.028;9.258;2023-05-03T22:25:40;100065.69;;;4.99;100.00
13800;BME280;6971;50.028;9.258;2023-05-03T22:30:41;100063.00;;;5.03;100.00
13800;BME280;6971;50.028;9.258;2023-05-03T22:35:41;100061.09;;;5.12;100.00
13800;BME280;6971;50.028;9.258;2023-05-03T22:40:42;100056.38;;;5.28;100.00
13800;BME280;6971;50.028;9.258;2023-05-03T22:45:42;100054.56;;;5.30;100.00
13800;BME280;6971;50.028;9.258;2023-05-03T22:50:42;100045.22;;;5.59;100.00
13800;BME280;6971;50.028;9.258;2023-05-03T22:55:42;100044.91;;;5.73;100.00
13800;BME280;6971;50.028;9.258;2023-05-03T23:00:43;100051.25;;;5.99;100.00
13800;BME280;6971;50.028;9.258;2023-05-03T23:05:43;100042.38;;;6.06;100.00
13800;BME280;6971;50.028;9.258;2023-05-03T23:10:43;100047.97;;;6.59;93.83
13800;BME280;6971;50.028;9.258;2023-05-03T23:15:44;100041.69;;;6.96;90.21
13800;BME280;6971;50.028;9.258;2023-05-03T23:20:45;100048.03;;;7.19;87.21
13800;BME280;6971;50.028;9.258;2023-05-03T23:25:45;100040.59;;;7.34;83.33
13800;BME280;6971;50.028;9.258;2023-05-03T23:30:45;100027.25;;;7.41;84.50
13800;BME280;6971;50.028;9.258;2023-05-03T23:35:46;100033.00;;;7.53;81.40
13800;BME280;6971;50.028;9.258;2023-05-03T23:40:46;100038.88;;;7.61;80.66
13800;BME280;6971;50.028;9.258;2023-05-03T23:45:46;100031.97;;;7.86;78.85
13800;BME280;6971;50.028;9.258;2023-05-03T23:50:47;100031.53;;;7.73;79.59
13800;BME280;6971;50.028;9.258;2023-05-03T23:55:47;100023.56;;;7.74;79.61
